Map

Track Data

SID SEASON NUMBER BASIN SUBBASIN NAME ISO_TIME NATURE LAT LON WMO_WIND WMO_PRES WMO_AGENCY TRACK_TYPE DIST2LAND LANDFALL IFLAG USA_AGENCY USA_ATCF_ID USA_LAT USA_LON USA_RECORD USA_STATUS USA_WIND USA_PRES USA_SSHS USA_R34_NE USA_R34_SE USA_R34_SW USA_R34_NW USA_R50_NE USA_R50_SE USA_R50_SW USA_R50_NW USA_R64_NE USA_R64_SE USA_R64_SW USA_R64_NW USA_POCI USA_ROCI USA_RMW USA_EYE TOKYO_LAT TOKYO_LON TOKYO_GRADE TOKYO_WIND TOKYO_PRES TOKYO_R50_DIR TOKYO_R50_LONG TOKYO_R50_SHORT TOKYO_R30_DIR TOKYO_R30_LONG TOKYO_R30_SHORT TOKYO_LAND CMA_LAT CMA_LON CMA_CAT CMA_WIND CMA_PRES HKO_LAT HKO_LON HKO_CAT HKO_WIND HKO_PRES NEWDELHI_LAT NEWDELHI_LON NEWDELHI_GRADE NEWDELHI_WIND NEWDELHI_PRES NEWDELHI_CI NEWDELHI_DP NEWDELHI_POCI REUNION_LAT REUNION_LON REUNION_TYPE REUNION_WIND REUNION_PRES REUNION_TNUM REUNION_CI REUNION_RMW REUNION_R34_NE REUNION_R34_SE REUNION_R34_SW REUNION_R34_NW REUNION_R50_NE REUNION_R50_SE REUNION_R50_SW REUNION_R50_NW REUNION_R64_NE REUNION_R64_SE REUNION_R64_SW REUNION_R64_NW BOM_LAT BOM_LON BOM_TYPE BOM_WIND BOM_PRES BOM_TNUM BOM_CI BOM_RMW BOM_R34_NE BOM_R34_SE BOM_R34_SW BOM_R34_NW BOM_R50_NE BOM_R50_SE BOM_R50_SW BOM_R50_NW BOM_R64_NE BOM_R64_SE BOM_R64_SW BOM_R64_NW BOM_ROCI BOM_POCI BOM_EYE BOM_POS_METHOD BOM_PRES_METHOD NADI_LAT NADI_LON NADI_CAT NADI_WIND NADI_PRES WELLINGTON_LAT WELLINGTON_LON WELLINGTON_WIND WELLINGTON_PRES DS824_LAT DS824_LON DS824_STAGE DS824_WIND DS824_PRES TD9636_LAT TD9636_LON TD9636_STAGE TD9636_WIND TD9636_PRES TD9635_LAT TD9635_LON TD9635_WIND TD9635_PRES TD9635_ROCI NEUMANN_LAT NEUMANN_LON NEUMANN_CLASS NEUMANN_WIND NEUMANN_PRES MLC_LAT MLC_LON MLC_CLASS MLC_WIND MLC_PRES USA_GUST BOM_GUST BOM_GUST_PER REUNION_GUST REUNION_GUST_PER USA_SEAHGT USA_SEARAD_NE USA_SEARAD_SE USA_SEARAD_SW USA_SEARAD_NW STORM_SPEED STORM_DIR
1910336N07132 1910 56 WP MM NOT_NAMED 1910-12-01 16:00:00 NR 7.30000 131.800 main 574 507 __________O___ -1 7.30000 131.800 7 19 273
1910336N07132 1910 56 WP MM NOT_NAMED 1910-12-01 18:00:00 NR 7.33851 131.158 main 507 397 __________P___ -1 7.33851 131.158 7 19 274
1910336N07132 1910 56 WP MM NOT_NAMED 1910-12-01 21:00:00 NR 7.39968 130.210 main 397 297 __________P___ -1 7.39968 130.210 7 18 274
1910336N07132 1910 56 WP MM NOT_NAMED 1910-12-02 00:00:00 NR 7.47202 129.304 main 297 209 __________P___ -1 7.47202 129.304 7 17 275
1910336N07132 1910 56 WP MM NOT_NAMED 1910-12-02 03:00:00 NR 7.56370 128.462 main 209 176 __________P___ -1 7.56370 128.462 7 17 277
1910336N07132 1910 56 WP MM NOT_NAMED 1910-12-02 04:00:00 NR 7.60000 128.200 main 176 121 __________O___ -1 7.60000 128.200 7 15 279
1910336N07132 1910 56 WP MM NOT_NAMED 1910-12-02 06:00:00 NR 7.68221 127.707 main 121 45 __________P___ -1 7.68221 127.707 7 14 281
1910336N07132 1910 56 WP MM NOT_NAMED 1910-12-02 09:00:00 NR 7.82499 127.031 main 45 0 __________P___ -1 7.82499 127.031 7 13 283
1910336N07132 1910 56 WP MM NOT_NAMED 1910-12-02 12:00:00 NR 7.98278 126.405 main 0 0 __________P___ -1 7.98278 126.405 7 13 285
1910336N07132 1910 56 WP MM NOT_NAMED 1910-12-02 15:00:00 NR 8.14604 125.801 main 0 0 __________P___ -1 8.14604 125.801 7 12 285
1910336N07132 1910 56 WP MM NOT_NAMED 1910-12-02 16:00:00 NR 8.20000 125.600 main 0 0 __________O___ -1 8.20000 125.600 4 12 283
1910336N07132 1910 56 WP MM NOT_NAMED 1910-12-02 18:00:00 NR 8.28637 125.198 main 0 0 __________P___ -1 8.28637 125.198 4 12 282
1910336N07132 1910 56 WP MM NOT_NAMED 1910-12-02 21:00:00 NR 8.41589 124.602 main 0 0 __________P___ -1 8.41589 124.602 4 12 283
1910336N07132 1910 56 WP MM NOT_NAMED 1910-12-03 00:00:00 NR 8.55948 123.990 main 22 0 __________P___ -1 8.55948 123.990 4 13 284
1910336N07132 1910 56 WP MM NOT_NAMED 1910-12-03 03:00:00 NR 8.73288 123.334 main 15 15 __________P___ -1 8.73288 123.334 4 14 285
1910336N07132 1910 56 WP MM NOT_NAMED 1910-12-03 04:00:00 NR 8.80000 123.100 main 24 15 __________O___ -1 8.80000 123.100 4 15 287
1910336N07132 1910 56 WP MM NOT_NAMED 1910-12-03 06:00:00 NR 8.96271 122.593 main 34 45 __________P___ -1 8.96271 122.593 4 17 289
1910336N07132 1910 56 WP MM NOT_NAMED 1910-12-03 09:00:00 NR 9.23847 121.783 main 88 94 __________P___ -1 9.23847 121.783 4 17 289
1910336N07132 1910 56 WP MM NOT_NAMED 1910-12-03 12:00:00 NR 9.52993 120.936 main 148 86 __________P___ -1 9.52993 120.936 4 18 289
1910336N07132 1910 56 WP MM NOT_NAMED 1910-12-03 15:00:00 NR 9.81221 120.082 main 86 60 __________P___ -1 9.81221 120.082 4 18 288
1910336N07132 1910 56 WP MM NOT_NAMED 1910-12-03 16:00:00 NR 9.90000 119.800 main 60 15 __________O___ -1 9.90000 119.800 4 17 286
1910336N07132 1910 56 WP MM NOT_NAMED 1910-12-03 18:00:00 NR 10.0473 119.261 main 15 0 __________P___ -1 10.0473 119.261 4 16 285
1910336N07132 1910 56 WP MM NOT_NAMED 1910-12-03 21:00:00 NR 10.2497 118.458 main 34 49 __________P___ -1 10.2497 118.458 4 16 284
1910336N07132 1910 56 WP MM NOT_NAMED 1910-12-04 00:00:00 NR 10.4409 117.660 main 117 133 __________P___ -1 10.4409 117.660 4 16 284
1910336N07132 1910 56 WP MM NOT_NAMED 1910-12-04 03:00:00 NR 10.6334 116.865 main 185 191 __________P___ -1 10.6334 116.865 4 16 284
1910336N07132 1910 56 WP MM NOT_NAMED 1910-12-04 04:00:00 NR 10.7000 116.600 main 213 213 __________O___ -1 10.7000 116.600 4 16 286
1910336N07132 1910 56 WP MM NOT_NAMED 1910-12-04 06:00:00 NR 10.8517 116.064 main 266 274 __________P___ -1 10.8517 116.064 4 16 286
1910336N07132 1910 56 WP MM NOT_NAMED 1910-12-04 09:00:00 NR 11.0862 115.260 main 344 352 __________P___ -1 11.0862 115.260 4 16 286
1910336N07132 1910 56 WP MM NOT_NAMED 1910-12-04 12:00:00 NR 11.3176 114.459 main 424 433 __________P___ -1 11.3176 114.459 4 16 286
1910336N07132 1910 56 WP MM NOT_NAMED 1910-12-04 15:00:00 NR 11.5336 113.663 main 473 438 __________P___ -1 11.5336 113.663 4 16 285
1910336N07132 1910 56 WP MM NOT_NAMED 1910-12-04 16:00:00 NR 11.6000 113.400 main 438 383 __________O___ -1 11.6000 113.400 4 16 284
1910336N07132 1910 56 WP MM NOT_NAMED 1910-12-04 18:00:00 NR 11.7226 112.877 main 383 293 __________P___ -1 11.7226 112.877 4 16 283
1910336N07132 1910 56 WP MM NOT_NAMED 1910-12-04 21:00:00 NR 11.8847 112.098 main 293 206 __________P___ -1 11.8847 112.098 4 16 281
1910336N07132 1910 56 WP MM NOT_NAMED 1910-12-05 00:00:00 NR 12.0273 111.326 main 206 127 __________P___ -1 12.0273 111.326 4 15 280
1910336N07132 1910 56 WP MM NOT_NAMED 1910-12-05 03:00:00 NR 12.1579 110.556 main 127 97 __________P___ -1 12.1579 110.556 4 15 280
1910336N07132 1910 56 WP MM NOT_NAMED 1910-12-05 04:00:00 NR 12.2000 110.300 main 97 __________O___ -1 12.2000 110.300 4 15 280

Digital Typhoon Data and Search

About IBTrACS Database

This database is a web-friendly format of International Best Track Archive for Climate Stewardship (IBTrACS), a global best track data archive curated by NOAA dating back to 1842.

Updated: 2021-12-06